Time;durP1;ratioP1;P1;durP2;ratioP2;P2;SDS_P1;SDS_P2;PMS_P1;PMS_P2;Temp;Humidity;BMP_temperature;BMP_pressure;BME280_temperature;BME280_humidity;BME280_pressure;Samples;Min_cycle;Max_cycle;Signal;HPM_P1;HPM_P2
2023/09/04 00:01:24;;;;;;;7.22;5.00;;;;;;;;;;5111868;28;20051;-74
2023/09/04 00:03:50;;;;;;;11.50;5.63;;;;;;;;;;5114044;28;20046;-74
2023/09/04 00:06:16;;;;;;;11.20;5.47;;;;;;;;;;5114657;28;20031;-75
2023/09/04 00:08:43;;;;;;;9.02;5.25;;;;;;;;;;5114806;28;20080;-75
2023/09/04 00:11:09;;;;;;;10.20;6.32;;;;;;;;;;5114828;28;20377;-75
2023/09/04 00:13:36;;;;;;;9.60;6.10;;;;;;;;;;5114505;28;20016;-74
2023/09/04 00:16:02;;;;;;;10.38;6.40;;;;;;;;;;5114910;28;20024;-74
2023/09/04 00:18:30;;;;;;;8.80;6.32;;;;;;;;;;5115042;28;20069;-74
2023/09/04 00:20:56;;;;;;;11.10;6.05;;;;;;;;;;5114607;28;20023;-76
2023/09/04 00:23:22;;;;;;;10.50;6.68;;;;;;;;;;5114302;28;20106;-73
2023/09/04 00:25:48;;;;;;;9.43;6.50;;;;;;;;;;5114637;28;20023;-74
2023/09/04 00:28:18;;;;;;;10.82;6.32;;;;;;;;;;5114680;28;20016;-75
2023/09/04 00:30:44;;;;;;;12.20;6.82;;;;;;;;;;5114389;28;20056;-75
2023/09/04 00:33:10;;;;;;;9.73;6.80;;;;;;;;;;5114126;28;20120;-75
2023/09/04 00:35:36;;;;;;;10.52;6.63;;;;;;;;;;5114122;28;20065;-74
2023/09/04 00:38:02;;;;;;;11.52;6.57;;;;;;;;;;5114238;28;20388;-74
2023/09/04 00:40:28;;;;;;;12.30;7.25;;;;;;;;;;5114363;28;20019;-74
2023/09/04 00:42:54;;;;;;;12.23;7.07;;;;;;;;;;5114069;28;20031;-74
2023/09/04 00:45:19;;;;;;;11.75;7.03;;;;;;;;;;5113850;28;20110;-75
2023/09/04 00:47:46;;;;;;;10.15;7.20;;;;;;;;;;5114152;28;20019;-75
2023/09/04 00:50:15;;;;;;;10.60;6.40;;;;;;;;;;5095823;28;20077;-73
2023/09/04 00:52:42;;;;;;;13.40;7.25;;;;;;;;;;5113665;28;20034;-75
2023/09/04 00:55:08;;;;;;;9.73;6.57;;;;;;;;;;5114144;28;20055;-74
2023/09/04 00:57:35;;;;;;;10.00;6.90;;;;;;;;;;5115321;28;20027;-75
2023/09/04 01:00:05;;;;;;;12.55;7.15;;;;;;;;;;5114337;28;20035;-74
2023/09/04 01:02:31;;;;;;;11.65;6.60;;;;;;;;;;5115710;28;20100;-75
2023/09/04 01:04:57;;;;;;;16.15;7.80;;;;;;;;;;5116165;28;20024;-75
2023/09/04 01:07:23;;;;;;;18.35;8.27;;;;;;;;;;5114845;28;20020;-75
2023/09/04 01:09:49;;;;;;;13.82;8.18;;;;;;;;;;5115147;28;20028;-74
2023/09/04 01:12:17;;;;;;;11.20;6.40;;;;;;;;;;5113943;28;20066;-74
2023/09/04 01:14:45;;;;;;;10.20;6.03;;;;;;;;;;5113973;28;20131;-74
2023/09/04 01:17:13;;;;;;;10.63;6.18;;;;;;;;;;5113856;28;20059;-74
2023/09/04 01:19:39;;;;;;;8.77;5.53;;;;;;;;;;5113456;28;20537;-73
2023/09/04 01:22:06;;;;;;;10.40;5.25;;;;;;;;;;5113214;28;20027;-73
2023/09/04 01:24:33;;;;;;;8.27;5.13;;;;;;;;;;5112400;28;20088;-73
2023/09/04 01:27:06;;;;;;;7.55;4.78;;;;;;;;;;5113409;28;20102;-74
2023/09/04 01:29:35;;;;;;;9.48;5.40;;;;;;;;;;5113053;28;20027;-74
2023/09/04 01:32:04;;;;;;;8.75;5.10;;;;;;;;;;5112930;28;20037;-74
2023/09/04 01:34:36;;;;;;;9.65;5.75;;;;;;;;;;5113243;28;20028;-74
2023/09/04 01:37:02;;;;;;;9.55;5.88;;;;;;;;;;5129965;28;20083;-73
2023/09/04 01:39:29;;;;;;;9.48;5.72;;;;;;;;;;5115195;28;20107;-74
2023/09/04 01:41:56;;;;;;;11.70;6.20;;;;;;;;;;5112831;28;20028;-73
2023/09/04 01:44:22;;;;;;;9.60;5.88;;;;;;;;;;5111927;28;20027;-73
2023/09/04 01:46:48;;;;;;;14.80;6.15;;;;;;;;;;5101291;28;20020;-73
2023/09/04 01:49:14;;;;;;;7.93;5.75;;;;;;;;;;5106817;27;20106;-73
2023/09/04 01:51:40;;;;;;;12.75;7.72;;;;;;;;;;5097017;27;20731;-75
2023/09/04 01:54:07;;;;;;;14.27;9.48;;;;;;;;;;5117439;27;20023;-74
2023/09/04 01:56:33;;;;;;;12.43;6.75;;;;;;;;;;5114147;27;20030;-74
2023/09/04 01:58:59;;;;;;;9.90;6.82;;;;;;;;;;5117622;27;20023;-74
2023/09/04 02:01:25;;;;;;;9.30;6.65;;;;;;;;;;5100070;28;20024;-73
2023/09/04 02:03:55;;;;;;;14.45;6.68;;;;;;;;;;5097214;27;20031;-72
2023/09/04 02:06:21;;;;;;;9.63;5.80;;;;;;;;;;5125633;27;20373;-72
2023/09/04 02:08:47;;;;;;;9.27;6.50;;;;;;;;;;5105868;27;20023;-72
2023/09/04 02:11:13;;;;;;;7.72;5.63;;;;;;;;;;5118699;27;20024;-74
2023/09/04 02:13:39;;;;;;;10.65;5.35;;;;;;;;;;5095455;28;20032;-74
2023/09/04 02:16:05;;;;;;;9.38;5.30;;;;;;;;;;5124000;27;20024;-74
2023/09/04 02:18:31;;;;;;;10.57;6.07;;;;;;;;;;5092165;28;20028;-74
2023/09/04 02:21:00;;;;;;;9.18;5.35;;;;;;;;;;5108533;28;20032;-74
2023/09/04 02:23:26;;;;;;;8.40;5.30;;;;;;;;;;5091578;28;20071;-74
2023/09/04 02:25:52;;;;;;;10.18;5.57;;;;;;;;;;5125146;28;20550;-74
2023/09/04 02:28:18;;;;;;;8.70;5.35;;;;;;;;;;5091660;28;20150;-74
2023/09/04 02:30:44;;;;;;;8.30;6.07;;;;;;;;;;5108186;28;20028;-73
2023/09/04 02:33:10;;;;;;;11.02;5.72;;;;;;;;;;5091355;28;20028;-74
2023/09/04 02:35:36;;;;;;;9.35;5.40;;;;;;;;;;5123841;28;20488;-74
2023/09/04 02:38:02;;;;;;;7.43;5.13;;;;;;;;;;5093262;28;20055;-73
2023/09/04 02:40:28;;;;;;;9.00;5.10;;;;;;;;;;5108708;28;20351;-74
2023/09/04 02:42:54;;;;;;;7.72;5.03;;;;;;;;;;5092308;28;20032;-74
2023/09/04 02:45:20;;;;;;;15.07;5.90;;;;;;;;;;5118062;28;20023;-73
2023/09/04 02:47:46;;;;;;;11.00;5.60;;;;;;;;;;5099629;28;20031;-73
2023/09/04 02:50:12;;;;;;;11.52;6.18;;;;;;;;;;5119632;27;20023;-76
2023/09/04 02:52:38;;;;;;;8.57;6.22;;;;;;;;;;5136756;27;20033;-72
2023/09/04 02:55:06;;;;;;;10.10;6.65;;;;;;;;;;5137025;27;20099;-74
2023/09/04 02:57:32;;;;;;;10.00;5.97;;;;;;;;;;5137084;27;20067;-73
2023/09/04 02:59:59;;;;;;;12.95;6.45;;;;;;;;;;5136019;27;20376;-73
2023/09/04 03:02:25;;;;;;;11.35;6.30;;;;;;;;;;5135952;27;20056;-74
2023/09/04 03:04:55;;;;;;;11.27;6.35;;;;;;;;;;5137105;27;20027;-74
2023/09/04 03:07:27;;;;;;;8.27;6.13;;;;;;;;;;5136245;27;20097;-74
2023/09/04 03:09:56;;;;;;;9.23;5.70;;;;;;;;;;5136955;27;20027;-74
2023/09/04 03:12:26;;;;;;;10.32;6.22;;;;;;;;;;5136542;27;20023;-74
2023/09/04 03:14:56;;;;;;;12.30;6.90;;;;;;;;;;5135843;27;20030;-74
2023/09/04 03:17:22;;;;;;;7.50;5.82;;;;;;;;;;5136176;27;20023;-74
2023/09/04 03:19:48;;;;;;;8.18;5.47;;;;;;;;;;5136258;27;20211;-74
2023/09/04 03:22:14;;;;;;;9.77;5.75;;;;;;;;;;5136180;27;20076;-75
2023/09/04 03:24:40;;;;;;;8.93;5.75;;;;;;;;;;5137723;27;20039;-74
2023/09/04 03:27:06;;;;;;;9.10;5.88;;;;;;;;;;5137016;27;20385;-74
2023/09/04 03:29:32;;;;;;;11.73;6.22;;;;;;;;;;5137113;27;20023;-74
2023/09/04 03:31:58;;;;;;;17.13;7.93;;;;;;;;;;5137825;27;20035;-73
2023/09/04 03:34:24;;;;;;;19.48;8.55;;;;;;;;;;5138167;27;20035;-72
2023/09/04 03:36:50;;;;;;;14.63;6.75;;;;;;;;;;5118979;27;20027;-73
2023/09/04 03:39:16;;;;;;;11.05;6.22;;;;;;;;;;5137460;27;20023;-73
2023/09/04 03:41:43;;;;;;;12.27;6.68;;;;;;;;;;5138166;27;20034;-72
2023/09/04 03:44:09;;;;;;;13.98;8.75;;;;;;;;;;5139405;27;20023;-73
2023/09/04 03:46:35;;;;;;;13.13;7.95;;;;;;;;;;5138217;27;20046;-72
2023/09/04 03:49:01;;;;;;;11.57;6.75;;;;;;;;;;5136875;27;20051;-73
2023/09/04 03:51:27;;;;;;;10.98;6.68;;;;;;;;;;5136375;27;20509;-74
2023/09/04 03:53:53;;;;;;;16.50;8.35;;;;;;;;;;5135640;27;20461;-73
2023/09/04 03:56:19;;;;;;;12.20;6.82;;;;;;;;;;5136264;27;20430;-73
2023/09/04 03:58:44;;;;;;;10.55;6.40;;;;;;;;;;5135501;27;20024;-75
2023/09/04 04:01:11;;;;;;;10.90;7.43;;;;;;;;;;5136094;27;20389;-74
2023/09/04 04:03:37;;;;;;;16.95;7.60;;;;;;;;;;5135424;27;20473;-72
2023/09/04 04:06:15;;;;;;;12.27;7.53;;;;;;;;;;5135871;27;20030;-73
2023/09/04 04:08:41;;;;;;;10.52;6.28;;;;;;;;;;5135571;27;20434;-73
2023/09/04 04:11:07;;;;;;;9.18;6.22;;;;;;;;;;5136347;27;20050;-74
2023/09/04 04:13:33;;;;;;;13.57;6.07;;;;;;;;;;5134515;27;20023;-74
2023/09/04 04:16:00;;;;;;;15.18;6.80;;;;;;;;;;5134861;27;20031;-74
2023/09/04 04:18:27;;;;;;;12.15;6.47;;;;;;;;;;5134702;27;20415;-76
2023/09/04 04:20:57;;;;;;;12.35;6.30;;;;;;;;;;5118871;27;20061;-79
2023/09/04 04:23:23;;;;;;;11.38;6.93;;;;;;;;;;5115253;28;20037;-77
2023/09/04 04:25:49;;;;;;;13.10;8.43;;;;;;;;;;5115505;28;20024;-78
2023/09/04 04:28:19;;;;;;;12.27;7.80;;;;;;;;;;5114203;28;20055;-75
2023/09/04 04:30:46;;;;;;;18.60;7.93;;;;;;;;;;5115767;28;20106;-77
2023/09/04 04:33:12;;;;;;;9.73;6.90;;;;;;;;;;5116295;28;20350;-77
2023/09/04 04:35:39;;;;;;;16.70;7.10;;;;;;;;;;5099448;28;20023;-77
2023/09/04 04:38:05;;;;;;;13.40;7.38;;;;;;;;;;5115075;28;20075;-77
2023/09/04 04:40:31;;;;;;;11.27;7.13;;;;;;;;;;5117083;28;20549;-78
2023/09/04 04:42:58;;;;;;;13.57;8.75;;;;;;;;;;5097568;28;20031;-78
2023/09/04 04:45:24;;;;;;;12.73;8.18;;;;;;;;;;5114414;28;20027;-76
2023/09/04 04:47:50;;;;;;;15.15;8.25;;;;;;;;;;5113691;28;20041;-74
2023/09/04 04:50:16;;;;;;;14.50;7.50;;;;;;;;;;5113310;28;20507;-75
2023/09/04 04:52:42;;;;;;;16.98;8.38;;;;;;;;;;5113288;28;20045;-74
2023/09/04 04:55:11;;;;;;;15.65;8.77;;;;;;;;;;5113414;28;20024;-75
2023/09/04 04:57:37;;;;;;;21.23;9.45;;;;;;;;;;5113377;28;20047;-74
2023/09/04 05:00:06;;;;;;;18.00;9.75;;;;;;;;;;5113548;28;20102;-74
2023/09/04 05:02:33;;;;;;;22.52;9.40;;;;;;;;;;5112994;28;20380;-78
2023/09/04 05:04:59;;;;;;;16.25;8.00;;;;;;;;;;5113379;28;20023;-74
2023/09/04 05:07:25;;;;;;;13.27;7.90;;;;;;;;;;5113392;28;20159;-74
2023/09/04 05:09:54;;;;;;;11.82;7.63;;;;;;;;;;5112513;28;20118;-73
2023/09/04 05:12:20;;;;;;;11.48;7.43;;;;;;;;;;5112903;28;20028;-75
2023/09/04 05:14:46;;;;;;;11.23;6.78;;;;;;;;;;5112807;28;20035;-73
2023/09/04 05:17:12;;;;;;;12.60;7.32;;;;;;;;;;5113041;28;20034;-72
2023/09/04 05:19:38;;;;;;;11.32;6.18;;;;;;;;;;5113391;28;20019;-74
2023/09/04 05:22:04;;;;;;;14.55;7.18;;;;;;;;;;5113379;28;20019;-74
2023/09/04 05:24:30;;;;;;;15.25;8.07;;;;;;;;;;5113149;28;20396;-73
2023/09/04 05:26:56;;;;;;;12.30;7.40;;;;;;;;;;5112723;28;20024;-74
2023/09/04 05:29:23;;;;;;;13.77;7.28;;;;;;;;;;5113181;28;20354;-72
2023/09/04 05:31:51;;;;;;;13.07;7.05;;;;;;;;;;5112662;28;20032;-73
2023/09/04 05:34:16;;;;;;;15.75;7.95;;;;;;;;;;5116599;28;20023;-73
2023/09/04 05:36:42;;;;;;;19.77;8.02;;;;;;;;;;5100212;28;20030;-73
2023/09/04 05:39:09;;;;;;;11.93;7.28;;;;;;;;;;5116021;28;20069;-78
2023/09/04 05:41:36;;;;;;;14.10;7.50;;;;;;;;;;5115096;28;20055;-73
2023/09/04 05:44:02;;;;;;;13.73;8.30;;;;;;;;;;5114087;28;20120;-73
2023/09/04 05:46:28;;;;;;;17.42;8.10;;;;;;;;;;5113770;28;20051;-74
2023/09/04 05:48:54;;;;;;;18.70;10.20;;;;;;;;;;5110267;28;20020;-73
2023/09/04 05:51:20;;;;;;;14.15;9.20;;;;;;;;;;5112924;28;20028;-73
2023/09/04 05:53:45;;;;;;;17.90;9.80;;;;;;;;;;5112633;28;20055;-73
2023/09/04 05:56:12;;;;;;;21.10;9.05;;;;;;;;;;5112568;28;20031;-76
2023/09/04 05:58:51;;;;;;;13.20;7.95;;;;;;;;;;5093033;28;20114;-75
2023/09/04 06:01:17;;;;;;;16.98;10.27;;;;;;;;;;5112330;28;20031;-73
2023/09/04 06:03:44;;;;;;;14.02;8.23;;;;;;;;;;5111843;28;20034;-74
2023/09/04 06:06:10;;;;;;;15.65;7.13;;;;;;;;;;5112287;28;20039;-72
2023/09/04 06:08:36;;;;;;;12.00;7.72;;;;;;;;;;5111052;28;20023;-73
2023/09/04 06:11:03;;;;;;;13.23;8.90;;;;;;;;;;5119916;28;20035;-74
2023/09/04 06:13:32;;;;;;;15.45;9.15;;;;;;;;;;5126392;28;20054;-75
2023/09/04 06:15:59;;;;;;;13.90;8.52;;;;;;;;;;5115322;28;20495;-73
2023/09/04 06:18:27;;;;;;;13.93;8.20;;;;;;;;;;5114073;28;20115;-73
2023/09/04 06:20:53;;;;;;;11.77;7.35;;;;;;;;;;5113197;28;20027;-76
2023/09/04 06:23:19;;;;;;;17.60;8.00;;;;;;;;;;5117692;28;20024;-72
2023/09/04 06:25:46;;;;;;;17.05;9.30;;;;;;;;;;5119079;28;20047;-74
2023/09/04 06:28:13;;;;;;;32.00;15.90;;;;;;;;;;5118366;28;20019;-73
2023/09/04 06:30:39;;;;;;;44.85;20.45;;;;;;;;;;5118627;28;20054;-73
2023/09/04 06:33:05;;;;;;;52.90;25.55;;;;;;;;;;5118689;28;20537;-74
2023/09/04 06:35:31;;;;;;;40.90;20.27;;;;;;;;;;5118896;28;20035;-73
2023/09/04 06:37:58;;;;;;;53.17;24.05;;;;;;;;;;5118837;28;20121;-73
2023/09/04 06:40:24;;;;;;;67.25;28.40;;;;;;;;;;5118588;28;20023;-73
2023/09/04 06:42:53;;;;;;;83.05;37.35;;;;;;;;;;5117847;28;20210;-74
2023/09/04 06:45:19;;;;;;;63.97;27.23;;;;;;;;;;5118237;28;20024;-73
2023/09/04 06:47:45;;;;;;;63.42;28.52;;;;;;;;;;5118270;28;20030;-73
2023/09/04 06:50:11;;;;;;;45.10;22.30;;;;;;;;;;5118244;28;20023;-73
2023/09/04 06:52:37;;;;;;;49.55;24.15;;;;;;;;;;5117921;28;20027;-74
2023/09/04 06:55:04;;;;;;;45.53;23.65;;;;;;;;;;5118532;28;20038;-72
2023/09/04 06:57:30;;;;;;;37.10;19.05;;;;;;;;;;5118374;28;20028;-74
2023/09/04 06:59:57;;;;;;;36.58;18.45;;;;;;;;;;5118760;28;20500;-74
2023/09/04 07:02:23;;;;;;;29.33;15.88;;;;;;;;;;5117655;28;20046;-76
2023/09/04 07:04:49;;;;;;;25.33;14.57;;;;;;;;;;5118390;28;20092;-74
2023/09/04 07:07:15;;;;;;;25.90;15.98;;;;;;;;;;5118294;28;20460;-75
2023/09/04 07:09:41;;;;;;;23.98;13.32;;;;;;;;;;5118244;28;20035;-75
2023/09/04 07:12:07;;;;;;;48.60;30.90;;;;;;;;;;5118906;28;20032;-75
2023/09/04 07:14:34;;;;;;;27.35;15.55;;;;;;;;;;5118022;28;20055;-74
2023/09/04 07:17:00;;;;;;;24.05;15.30;;;;;;;;;;5119185;28;20039;-74
2023/09/04 07:19:26;;;;;;;15.10;10.50;;;;;;;;;;5118914;28;20028;-74
2023/09/04 07:21:52;;;;;;;21.48;11.38;;;;;;;;;;5119096;28;20146;-73
2023/09/04 07:24:18;;;;;;;17.33;10.65;;;;;;;;;;5120215;28;20027;-74
2023/09/04 07:26:43;;;;;;;14.05;10.52;;;;;;;;;;5118339;28;20028;-74
2023/09/04 07:29:09;;;;;;;19.33;11.30;;;;;;;;;;5118093;28;20020;-73
2023/09/04 07:31:35;;;;;;;13.30;8.57;;;;;;;;;;5118054;28;20097;-73
2023/09/04 07:34:02;;;;;;;14.45;8.48;;;;;;;;;;5115343;27;20059;-75
2023/09/04 07:36:28;;;;;;;16.13;7.40;;;;;;;;;;5115913;28;20144;-74
2023/09/04 07:38:54;;;;;;;13.93;8.15;;;;;;;;;;5115960;28;20047;-74
2023/09/04 07:41:20;;;;;;;16.35;7.88;;;;;;;;;;5113898;28;20023;-76
2023/09/04 07:43:46;;;;;;;13.77;7.00;;;;;;;;;;5115445;28;20078;-75
2023/09/04 07:46:12;;;;;;;12.93;6.70;;;;;;;;;;5116068;28;20019;-76
2023/09/04 07:48:40;;;;;;;13.48;7.05;;;;;;;;;;5116718;28;20079;-74
2023/09/04 07:51:06;;;;;;;8.07;5.70;;;;;;;;;;5115625;28;20103;-73
2023/09/04 07:53:32;;;;;;;14.07;5.28;;;;;;;;;;5116176;28;20027;-74
2023/09/04 07:55:58;;;;;;;8.07;4.65;;;;;;;;;;5115918;27;20384;-73
2023/09/04 07:58:24;;;;;;;11.00;5.30;;;;;;;;;;5116246;28;20115;-74
2023/09/04 08:00:51;;;;;;;14.90;5.85;;;;;;;;;;5114879;28;20110;-75
2023/09/04 08:03:17;;;;;;;13.90;6.15;;;;;;;;;;5117101;28;20027;-73
2023/09/04 08:05:43;;;;;;;10.18;5.20;;;;;;;;;;5129925;27;20084;-73
2023/09/04 08:08:10;;;;;;;18.13;5.25;;;;;;;;;;5137455;27;20421;-73
2023/09/04 08:10:40;;;;;;;7.68;4.38;;;;;;;;;;5119167;27;20039;-74
2023/09/04 08:13:16;;;;;;;9.63;3.95;;;;;;;;;;5136826;27;20102;-73
2023/09/04 08:15:42;;;;;;;5.93;3.38;;;;;;;;;;5136662;27;20042;-73
2023/09/04 08:18:09;;;;;;;8.27;4.05;;;;;;;;;;5136793;27;20027;-73
2023/09/04 08:20:36;;;;;;;8.88;3.88;;;;;;;;;;5135969;27;20377;-73
2023/09/04 08:23:02;;;;;;;15.60;4.57;;;;;;;;;;5136101;27;20023;-73
2023/09/04 08:25:28;;;;;;;7.97;3.97;;;;;;;;;;5134098;27;20011;-72
2023/09/04 08:27:54;;;;;;;9.25;3.10;;;;;;;;;;5116176;27;20180;-73
2023/09/04 08:30:20;;;;;;;9.20;3.72;;;;;;;;;;5135289;27;20023;-73
2023/09/04 08:32:46;;;;;;;9.88;4.40;;;;;;;;;;5133254;27;20019;-73
2023/09/04 08:35:12;;;;;;;8.10;4.10;;;;;;;;;;5134321;27;20388;-73
2023/09/04 08:37:38;;;;;;;6.35;3.30;;;;;;;;;;5134346;27;20409;-73
2023/09/04 08:40:05;;;;;;;8.95;3.47;;;;;;;;;;5134477;27;20110;-75
2023/09/04 08:42:32;;;;;;;9.93;3.58;;;;;;;;;;5134286;27;20554;-77
2023/09/04 08:44:58;;;;;;;9.48;3.92;;;;;;;;;;5133761;27;20061;-77
2023/09/04 08:47:24;;;;;;;9.27;4.38;;;;;;;;;;5134441;27;20037;-76
2023/09/04 08:49:52;;;;;;;11.05;5.10;;;;;;;;;;5134660;27;20027;-78
2023/09/04 08:52:18;;;;;;;8.50;4.25;;;;;;;;;;5134112;27;20488;-76
2023/09/04 08:54:44;;;;;;;8.55;3.85;;;;;;;;;;5134674;27;20029;-77
2023/09/04 08:57:11;;;;;;;10.55;3.42;;;;;;;;;;5135861;27;20392;-79
2023/09/04 08:59:37;;;;;;;6.30;2.83;;;;;;;;;;5136521;27;20030;-78
2023/09/04 09:02:04;;;;;;;9.57;3.85;;;;;;;;;;5118984;27;20419;-79
2023/09/04 09:04:33;;;;;;;119.45;42.47;;;;;;;;;;5121268;27;20046;-76
2023/09/04 09:07:00;;;;;;;8.68;3.90;;;;;;;;;;5136678;27;20076;-76
2023/09/04 09:09:26;;;;;;;24.00;10.13;;;;;;;;;;5134770;27;20062;-77
2023/09/04 09:11:55;;;;;;;10.82;4.88;;;;;;;;;;5134744;27;20029;-77
2023/09/04 09:14:22;;;;;;;13.00;5.18;;;;;;;;;;5133886;27;20038;-74
2023/09/04 09:16:48;;;;;;;24.63;5.00;;;;;;;;;;5133666;27;20057;-74
2023/09/04 09:19:14;;;;;;;15.05;6.63;;;;;;;;;;5133408;27;20030;-74
2023/09/04 09:21:40;;;;;;;6.93;2.97;;;;;;;;;;5133525;27;20031;-73
2023/09/04 09:24:19;;;;;;;7.18;2.50;;;;;;;;;;5133105;27;20023;-73
2023/09/04 09:26:46;;;;;;;9.32;2.50;;;;;;;;;;5133329;27;20015;-73
2023/09/04 09:29:13;;;;;;;2.63;1.48;;;;;;;;;;5133273;27;20122;-73
2023/09/04 09:31:41;;;;;;;4.10;1.50;;;;;;;;;;5133306;27;20019;-74
2023/09/04 09:34:07;;;;;;;3.47;1.42;;;;;;;;;;5133254;27;20023;-73
2023/09/04 09:36:34;;;;;;;3.70;1.70;;;;;;;;;;5133354;27;20019;-74
2023/09/04 09:39:00;;;;;;;4.03;1.40;;;;;;;;;;5133382;27;20030;-73
2023/09/04 09:41:26;;;;;;;6.43;1.70;;;;;;;;;;5133726;27;20552;-73
2023/09/04 09:43:52;;;;;;;4.43;1.77;;;;;;;;;;5137104;27;20043;-74
2023/09/04 09:46:18;;;;;;;2.53;1.42;;;;;;;;;;5115863;27;20016;-74
2023/09/04 09:48:48;;;;;;;4.22;2.05;;;;;;;;;;5132913;27;20021;-74
2023/09/04 09:51:14;;;;;;;7.15;2.30;;;;;;;;;;5133361;27;20031;-73
2023/09/04 09:53:47;;;;;;;4.50;1.58;;;;;;;;;;5132841;27;20027;-72
2023/09/04 09:56:14;;;;;;;6.25;1.70;;;;;;;;;;5135760;27;20457;-73
2023/09/04 09:58:41;;;;;;;2.53;1.40;;;;;;;;;;5136523;27;20126;-73
2023/09/04 10:01:08;;;;;;;8.27;2.03;;;;;;;;;;5137308;27;20022;-81
2023/09/04 10:03:35;;;;;;;3.50;1.48;;;;;;;;;;5137568;27;20019;-75
2023/09/04 10:06:02;;;;;;;3.55;1.25;;;;;;;;;;5138094;27;20403;-73
2023/09/04 10:08:31;;;;;;;3.03;1.27;;;;;;;;;;5138114;27;20511;-76
2023/09/04 10:10:57;;;;;;;4.50;1.30;;;;;;;;;;5138361;27;20027;-74
2023/09/04 10:13:27;;;;;;;3.30;1.40;;;;;;;;;;5134735;27;20031;-74
2023/09/04 10:15:53;;;;;;;2.97;1.40;;;;;;;;;;5115337;27;20023;-74
2023/09/04 10:18:21;;;;;;;2.58;1.48;;;;;;;;;;5133104;27;20023;-74
2023/09/04 10:20:47;;;;;;;4.97;1.40;;;;;;;;;;5132848;28;20027;-74
2023/09/04 10:23:15;;;;;;;2.30;1.52;;;;;;;;;;5132689;28;20027;-74
2023/09/04 10:25:48;;;;;;;2.22;1.30;;;;;;;;;;5132578;28;20096;-74
2023/09/04 10:28:33;;;;;;;2.38;1.30;;;;;;;;;;5133077;28;20549;-74
2023/09/04 10:31:00;;;;;;;3.63;1.05;;;;;;;;;;5132342;28;20023;-74
2023/09/04 10:33:26;;;;;;;6.80;3.00;;;;;;;;;;5132518;28;20110;-74
2023/09/04 10:35:56;;;;;;;4.32;2.60;;;;;;;;;;5132659;28;20097;-73
2023/09/04 10:38:22;;;;;;;8.10;3.35;;;;;;;;;;5133514;28;20029;-73
2023/09/04 10:40:49;;;;;;;3.80;1.65;;;;;;;;;;5134159;28;20023;-74
2023/09/04 10:43:15;;;;;;;9.07;2.17;;;;;;;;;;5115833;28;20087;-73
2023/09/04 10:45:41;;;;;;;5.88;1.75;;;;;;;;;;5134462;28;20143;-74
2023/09/04 10:48:07;;;;;;;6.07;1.60;;;;;;;;;;5134688;28;20026;-72
2023/09/04 10:50:37;;;;;;;3.15;1.45;;;;;;;;;;5134481;28;20015;-74
2023/09/04 10:53:04;;;;;;;4.68;1.48;;;;;;;;;;5141180;28;20027;-73
2023/09/04 10:55:31;;;;;;;2.08;1.10;;;;;;;;;;5141695;28;20019;-74
2023/09/04 10:58:01;;;;;;;2.92;1.42;;;;;;;;;;5142796;28;20027;-74
2023/09/04 11:00:28;;;;;;;4.10;1.10;;;;;;;;;;5143219;28;20622;-73
2023/09/04 11:02:54;;;;;;;4.43;1.17;;;;;;;;;;5140257;28;20015;-73
2023/09/04 11:05:20;;;;;;;3.10;1.25;;;;;;;;;;5141283;28;20027;-74
2023/09/04 11:07:46;;;;;;;3.58;1.50;;;;;;;;;;5141384;27;20039;-73
2023/09/04 11:10:13;;;;;;;2.45;1.30;;;;;;;;;;5144020;27;20027;-74
2023/09/04 11:12:39;;;;;;;3.47;1.30;;;;;;;;;;5140456;27;20027;-73
2023/09/04 11:15:15;;;;;;;2.58;1.50;;;;;;;;;;5140127;27;20115;-73
2023/09/04 11:17:44;;;;;;;4.10;1.20;;;;;;;;;;5137469;27;20027;-73
2023/09/04 11:20:14;;;;;;;7.80;1.13;;;;;;;;;;5138651;27;20515;-75
2023/09/04 11:22:45;;;;;;;2.65;1.20;;;;;;;;;;5137649;27;20019;-74
2023/09/04 11:25:11;;;;;;;1.83;1.13;;;;;;;;;;5137925;27;20011;-75
2023/09/04 11:27:37;;;;;;;2.58;1.20;;;;;;;;;;5137309;27;20024;-73
2023/09/04 11:30:03;;;;;;;1.90;1.20;;;;;;;;;;5135105;27;20055;-76
2023/09/04 11:32:29;;;;;;;3.22;1.42;;;;;;;;;;5116772;28;20047;-74
2023/09/04 11:34:57;;;;;;;2.45;1.20;;;;;;;;;;5117697;28;20051;-74
2023/09/04 11:37:31;;;;;;;3.97;1.40;;;;;;;;;;5119555;28;20030;-74
2023/09/04 11:39:58;;;;;;;2.58;1.27;;;;;;;;;;5121367;27;20485;-74
2023/09/04 11:42:24;;;;;;;3.60;1.33;;;;;;;;;;5143971;27;20401;-73
2023/09/04 11:44:51;;;;;;;2.45;1.40;;;;;;;;;;5144324;27;20027;-73
2023/09/04 11:47:18;;;;;;;2.72;1.30;;;;;;;;;;5122465;28;20030;-75
2023/09/04 11:49:44;;;;;;;2.42;1.30;;;;;;;;;;5123922;28;20027;-75
2023/09/04 11:52:11;;;;;;;3.58;1.42;;;;;;;;;;5122761;27;20032;-75
2023/09/04 11:54:37;;;;;;;2.97;1.17;;;;;;;;;;5121351;28;20382;-73
2023/09/04 11:57:06;;;;;;;4.55;1.58;;;;;;;;;;5137482;27;20652;-75
2023/09/04 11:59:34;;;;;;;5.25;1.60;;;;;;;;;;5139406;27;20103;-74
2023/09/04 12:02:00;;;;;;;2.45;1.20;;;;;;;;;;5139835;27;20484;-74
2023/09/04 12:04:27;;;;;;;1.52;1.10;;;;;;;;;;5140905;27;20019;-74
2023/09/04 12:06:53;;;;;;;3.17;1.75;;;;;;;;;;5116949;27;20026;-77
2023/09/04 12:09:20;;;;;;;7.25;2.15;;;;;;;;;;5135616;27;20054;-75
2023/09/04 12:11:46;;;;;;;6.10;1.83;;;;;;;;;;5136417;27;20023;-76
2023/09/04 12:14:12;;;;;;;9.57;2.38;;;;;;;;;;5136343;27;20027;-75
2023/09/04 12:16:39;;;;;;;13.10;2.38;;;;;;;;;;5135071;27;20499;-75
2023/09/04 12:19:06;;;;;;;6.70;2.47;;;;;;;;;;5135305;27;20019;-74
2023/09/04 12:21:32;;;;;;;7.85;2.50;;;;;;;;;;5135593;27;20369;-75
2023/09/04 12:23:58;;;;;;;7.10;2.28;;;;;;;;;;5135016;27;20072;-74
2023/09/04 12:26:24;;;;;;;5.40;2.55;;;;;;;;;;5134735;27;20026;-74
2023/09/04 12:28:52;;;;;;;11.98;4.60;;;;;;;;;;5134595;27;20393;-74
2023/09/04 12:31:20;;;;;;;4.28;2.03;;;;;;;;;;5134308;27;20031;-74
2023/09/04 12:33:47;;;;;;;7.30;2.47;;;;;;;;;;5134194;27;20079;-74
2023/09/04 12:36:14;;;;;;;8.23;2.28;;;;;;;;;;5134331;27;20141;-75
2023/09/04 12:38:41;;;;;;;6.10;2.53;;;;;;;;;;5134706;27;20027;-74
2023/09/04 12:41:07;;;;;;;10.27;2.40;;;;;;;;;;5136374;27;20036;-74
2023/09/04 12:43:33;;;;;;;7.05;2.33;;;;;;;;;;5134770;27;20047;-76
2023/09/04 12:45:59;;;;;;;6.82;2.65;;;;;;;;;;5134756;27;20027;-74
2023/09/04 12:48:25;;;;;;;9.77;2.35;;;;;;;;;;5134819;27;20059;-76
2023/09/04 12:50:51;;;;;;;8.10;2.38;;;;;;;;;;5135181;27;20095;-76
2023/09/04 12:53:17;;;;;;;11.75;2.50;;;;;;;;;;5134522;27;20540;-74
2023/09/04 12:55:43;;;;;;;9.60;2.50;;;;;;;;;;5133731;27;20106;-75
2023/09/04 12:58:10;;;;;;;7.13;1.95;;;;;;;;;;5133794;27;20033;-74
2023/09/04 13:00:37;;;;;;;9.52;1.75;;;;;;;;;;5133710;27;20061;-77
2023/09/04 13:03:03;;;;;;;10.30;1.90;;;;;;;;;;5133479;27;20090;-74
2023/09/04 13:05:29;;;;;;;9.82;2.00;;;;;;;;;;5133693;27;20019;-75
2023/09/04 13:07:55;;;;;;;5.15;1.75;;;;;;;;;;5133967;27;20486;-75
2023/09/04 13:10:22;;;;;;;7.82;1.92;;;;;;;;;;5134009;27;20103;-74
2023/09/04 13:12:48;;;;;;;6.13;1.73;;;;;;;;;;5133701;27;20091;-73
2023/09/04 13:15:14;;;;;;;5.70;1.80;;;;;;;;;;5133577;27;20043;-73
2023/09/04 13:17:43;;;;;;;5.10;1.50;;;;;;;;;;5133637;27;20110;-73
2023/09/04 13:20:10;;;;;;;6.95;1.70;;;;;;;;;;5133546;27;20023;-75
2023/09/04 13:22:36;;;;;;;3.30;1.80;;;;;;;;;;5133424;27;20099;-73
2023/09/04 13:25:02;;;;;;;6.70;1.52;;;;;;;;;;5133546;27;20504;-73
2023/09/04 13:27:28;;;;;;;7.85;1.40;;;;;;;;;;5133366;27;20098;-72
2023/09/04 13:29:54;;;;;;;8.15;1.60;;;;;;;;;;5133666;27;20054;-74
2023/09/04 13:32:20;;;;;;;5.13;1.60;;;;;;;;;;5132234;27;20058;-74
2023/09/04 13:34:47;;;;;;;3.08;1.48;;;;;;;;;;5133476;27;20034;-73
2023/09/04 13:37:14;;;;;;;3.70;1.45;;;;;;;;;;5133630;27;20035;-74
2023/09/04 13:39:40;;;;;;;3.65;1.60;;;;;;;;;;5133749;27;20027;-73
2023/09/04 13:42:06;;;;;;;2.92;1.33;;;;;;;;;;5133708;27;20507;-76
2023/09/04 13:44:32;;;;;;;8.45;1.33;;;;;;;;;;5115174;27;20023;-76
2023/09/04 13:46:58;;;;;;;5.18;1.55;;;;;;;;;;5133192;27;20026;-74
2023/09/04 13:49:23;;;;;;;5.72;1.38;;;;;;;;;;5134176;27;20111;-75
2023/09/04 13:51:49;;;;;;;4.18;1.70;;;;;;;;;;5134582;27;20019;-75
2023/09/04 13:54:15;;;;;;;2.67;1.58;;;;;;;;;;5135008;27;20030;-74
2023/09/04 13:56:44;;;;;;;6.57;2.00;;;;;;;;;;5134872;27;20046;-75
2023/09/04 13:59:10;;;;;;;4.55;1.63;;;;;;;;;;5134668;27;20020;-73
2023/09/04 14:01:36;;;;;;;3.67;1.50;;;;;;;;;;5135357;27;20031;-74
2023/09/04 14:04:03;;;;;;;2.85;1.73;;;;;;;;;;5134398;27;20028;-74
2023/09/04 14:06:29;;;;;;;3.88;1.35;;;;;;;;;;5134340;27;20019;-74
2023/09/04 14:08:55;;;;;;;5.88;1.40;;;;;;;;;;5134409;27;20023;-74
2023/09/04 14:11:22;;;;;;;5.35;1.90;;;;;;;;;;5134123;27;20169;-74
2023/09/04 14:13:48;;;;;;;3.47;1.92;;;;;;;;;;5134355;27;20039;-75
2023/09/04 14:16:14;;;;;;;5.82;1.95;;;;;;;;;;5134200;27;20023;-74
2023/09/04 14:18:40;;;;;;;4.68;1.50;;;;;;;;;;5134333;27;20023;-74
2023/09/04 14:21:07;;;;;;;3.30;1.60;;;;;;;;;;5135585;27;20026;-74
2023/09/04 14:23:33;;;;;;;3.72;1.80;;;;;;;;;;5134221;28;20026;-74
2023/09/04 14:25:59;;;;;;;2.75;1.58;;;;;;;;;;5132492;28;20023;-73
2023/09/04 14:28:25;;;;;;;5.18;1.42;;;;;;;;;;5132407;28;20098;-74
2023/09/04 14:30:51;;;;;;;8.45;1.40;;;;;;;;;;5133089;28;20096;-76
2023/09/04 14:33:16;;;;;;;4.25;1.60;;;;;;;;;;5132143;28;20110;-73